createdAt,value
2023-04-22T00:02:17.258Z,19.53
2023-04-22T00:04:48.564Z,19.53
2023-04-22T00:07:20.047Z,19.55
2023-04-22T00:09:51.164Z,19.56
2023-04-22T00:12:22.029Z,19.57
2023-04-22T00:14:52.776Z,19.57
2023-04-22T00:17:23.625Z,19.57
2023-04-22T00:19:54.679Z,19.56
2023-04-22T00:22:27.940Z,19.56
2023-04-22T00:24:58.549Z,19.56
2023-04-22T00:27:29.314Z,19.56
2023-04-22T00:30:00.049Z,19.54
2023-04-22T00:32:30.958Z,19.55
2023-04-22T00:35:01.591Z,19.54
2023-04-22T00:37:32.347Z,19.54
2023-04-22T00:40:03.720Z,19.54
2023-04-22T00:42:34.636Z,19.54
2023-04-22T00:45:06.204Z,19.53
2023-04-22T00:47:37.567Z,19.53
2023-04-22T00:50:10.629Z,19.53
2023-04-22T00:52:41.630Z,19.53
2023-04-22T00:55:13.372Z,19.53
2023-04-22T00:57:45.507Z,19.54
2023-04-22T01:00:17.285Z,19.53
2023-04-22T01:02:48.384Z,19.54
2023-04-22T01:05:20.108Z,19.54
2023-04-22T01:07:51.460Z,19.54
2023-04-22T01:10:22.937Z,19.54
2023-04-22T01:12:53.620Z,19.55
2023-04-22T01:15:24.544Z,19.56
2023-04-22T01:17:56.111Z,19.57
2023-04-22T01:20:29.685Z,19.57
2023-04-22T01:23:04.248Z,19.57
2023-04-22T01:25:34.964Z,19.57
2023-04-22T01:28:05.988Z,19.56
2023-04-22T01:30:36.925Z,19.56
2023-04-22T01:33:07.982Z,19.56
2023-04-22T01:35:39.475Z,19.56
2023-04-22T01:38:12.382Z,19.56
2023-04-22T01:40:43.146Z,19.56
2023-04-22T01:43:14.081Z,19.56
2023-04-22T01:45:45.114Z,19.55
2023-04-22T01:48:16.217Z,19.54
2023-04-22T01:50:47.239Z,19.54
2023-04-22T01:53:17.950Z,19.53
2023-04-22T01:55:49.588Z,19.53
2023-04-22T01:58:20.225Z,19.53
2023-04-22T02:00:50.848Z,19.53
2023-04-22T02:03:21.613Z,19.52
2023-04-22T02:05:54.210Z,19.53
2023-04-22T02:08:24.936Z,19.52
2023-04-22T02:10:55.660Z,19.52
2023-04-22T02:13:26.588Z,19.53
2023-04-22T02:15:57.383Z,19.53
2023-04-22T02:18:28.207Z,19.53
2023-04-22T02:20:58.853Z,19.53
2023-04-22T02:23:30.366Z,19.53
2023-04-22T02:26:01.671Z,19.52
2023-04-22T02:28:32.475Z,19.52
2023-04-22T02:31:03.562Z,19.51
2023-04-22T02:33:34.212Z,19.52
2023-04-22T02:36:05.293Z,19.52
2023-04-22T02:38:35.992Z,19.50
2023-04-22T02:41:06.886Z,19.53
2023-04-22T02:43:37.537Z,19.53
2023-04-22T02:46:10.655Z,19.52
2023-04-22T02:48:41.441Z,19.52
2023-04-22T02:51:12.628Z,19.52
2023-04-22T02:53:43.751Z,19.52
2023-04-22T02:56:14.532Z,19.52
2023-04-22T02:58:45.246Z,19.51
2023-04-22T03:01:16.287Z,19.51
2023-04-22T03:03:47.432Z,19.51
2023-04-22T03:06:18.974Z,19.50
2023-04-22T03:08:50.036Z,19.50
2023-04-22T03:11:20.998Z,19.50
2023-04-22T03:13:52.114Z,19.48
2023-04-22T03:16:25.954Z,19.50
2023-04-22T03:18:55.124Z,19.50
2023-04-22T03:21:25.865Z,19.48
2023-04-22T03:23:56.535Z,19.49
2023-04-22T03:26:27.304Z,19.48
2023-04-22T03:28:58.074Z,19.48
2023-04-22T03:31:28.774Z,19.47
2023-04-22T03:33:59.655Z,19.48
2023-04-22T03:36:31.206Z,19.46
2023-04-22T03:39:01.852Z,19.47
2023-04-22T03:41:32.860Z,19.48
2023-04-22T03:44:03.449Z,19.48
2023-04-22T03:46:34.678Z,19.49
2023-04-22T03:49:06.133Z,19.47
2023-04-22T03:51:37.385Z,19.48
2023-04-22T03:54:08.531Z,19.48
2023-04-22T03:56:39.489Z,19.48
2023-04-22T03:59:10.507Z,19.48
2023-04-22T04:01:41.252Z,19.46
2023-04-22T04:04:12.106Z,19.47
2023-04-22T04:06:42.999Z,19.47
2023-04-22T04:09:13.689Z,19.45
2023-04-22T04:11:44.514Z,19.45
2023-04-22T04:14:15.648Z,19.44
2023-04-22T04:16:46.606Z,19.43
2023-04-22T04:19:17.960Z,19.42
2023-04-22T04:21:49.308Z,19.41
2023-04-22T04:24:20.307Z,19.38
2023-04-22T04:26:51.400Z,19.38
2023-04-22T04:29:23.952Z,19.38
2023-04-22T04:31:54.832Z,19.36
2023-04-22T04:34:25.773Z,19.34
2023-04-22T04:36:57.077Z,19.33
2023-04-22T04:39:29.385Z,19.32
2023-04-22T04:42:00.559Z,19.32
2023-04-22T04:44:32.387Z,19.31
2023-04-22T04:47:04.201Z,19.28
2023-04-22T04:49:39.948Z,19.28
2023-04-22T04:52:12.000Z,19.26
2023-04-22T04:54:42.822Z,19.25
2023-04-22T04:57:13.667Z,19.23
2023-04-22T04:59:44.282Z,19.22
2023-04-22T05:02:15.226Z,19.20
2023-04-22T05:04:46.913Z,19.19
2023-04-22T05:07:17.946Z,19.17
2023-04-22T05:09:48.766Z,19.16
2023-04-22T05:12:19.414Z,19.14
2023-04-22T05:14:50.260Z,19.13
2023-04-22T05:17:22.152Z,19.12
2023-04-22T05:19:53.106Z,19.12
2023-04-22T05:22:24.687Z,19.11
2023-04-22T05:24:55.357Z,19.11
2023-04-22T05:27:26.225Z,19.08
2023-04-22T05:29:57.333Z,19.10
2023-04-22T05:32:28.265Z,19.08
2023-04-22T05:34:58.927Z,19.09
2023-04-22T05:37:30.009Z,19.07
2023-04-22T05:40:00.713Z,19.08
2023-04-22T05:42:31.397Z,19.08
2023-04-22T05:45:02.187Z,19.09
2023-04-22T05:47:33.058Z,19.10
2023-04-22T05:50:03.914Z,19.10
2023-04-22T05:52:34.559Z,19.10
2023-04-22T05:55:06.165Z,19.10
2023-04-22T05:57:36.935Z,19.11
2023-04-22T06:00:09.786Z,19.12
2023-04-22T06:02:40.693Z,19.10
2023-04-22T06:05:12.651Z,19.11
2023-04-22T06:07:43.532Z,19.10
2023-04-22T06:10:14.458Z,19.09
2023-04-22T06:12:45.374Z,19.10
2023-04-22T06:15:16.405Z,19.10
2023-04-22T06:17:47.165Z,19.10
2023-04-22T06:20:17.950Z,19.10
2023-04-22T06:22:48.801Z,19.11
2023-04-22T06:25:19.978Z,19.08
2023-04-22T06:27:50.736Z,19.06
2023-04-22T06:30:21.719Z,19.06
2023-04-22T06:32:52.967Z,19.06
2023-04-22T06:35:24.128Z,19.07
2023-04-22T06:37:55.406Z,19.07
2023-04-22T06:40:26.357Z,19.07
2023-04-22T06:42:57.056Z,19.07
2023-04-22T06:45:28.226Z,19.07
2023-04-22T06:47:59.038Z,19.06
2023-04-22T06:50:30.721Z,19.07
2023-04-22T06:53:01.443Z,19.07
2023-04-22T06:55:32.305Z,19.08
2023-04-22T06:58:03.278Z,19.07
2023-04-22T07:00:34.258Z,19.07
2023-04-22T07:03:05.356Z,19.06
2023-04-22T07:05:39.135Z,19.06
2023-04-22T07:08:10.571Z,19.04
2023-04-22T07:10:41.613Z,19.06
2023-04-22T07:13:12.445Z,19.05
2023-04-22T07:15:43.393Z,19.06
2023-04-22T07:18:14.379Z,19.07
2023-04-22T07:20:45.488Z,19.09
2023-04-22T07:23:16.216Z,19.09
2023-04-22T07:25:47.215Z,19.10
2023-04-22T07:28:17.934Z,19.11
2023-04-22T07:30:48.886Z,19.13
2023-04-22T07:33:19.595Z,19.14
2023-04-22T07:35:50.752Z,19.16
2023-04-22T07:38:21.495Z,19.18
2023-04-22T07:40:52.354Z,19.19
2023-04-22T07:43:23.150Z,19.20
2023-04-22T07:45:54.015Z,19.22
2023-04-22T07:48:24.829Z,19.23
2023-04-22T07:50:55.873Z,19.25
2023-04-22T07:53:26.815Z,19.26
2023-04-22T07:55:59.802Z,19.28
2023-04-22T07:58:31.690Z,19.31
2023-04-22T08:01:02.591Z,19.32
2023-04-22T08:03:33.548Z,19.34
2023-04-22T08:06:04.659Z,19.34
2023-04-22T08:08:35.559Z,19.34
2023-04-22T08:11:06.996Z,19.34
2023-04-22T08:13:37.860Z,19.33
2023-04-22T08:16:09.436Z,19.35
2023-04-22T08:18:40.690Z,19.36
2023-04-22T08:21:12.527Z,19.35
2023-04-22T08:23:43.280Z,19.35
2023-04-22T08:26:15.428Z,19.37
2023-04-22T08:28:46.391Z,19.36
2023-04-22T08:31:17.317Z,19.37
2023-04-22T08:33:48.705Z,19.39
2023-04-22T08:36:22.849Z,19.39
2023-04-22T08:38:54.767Z,19.40
2023-04-22T08:41:27.182Z,19.41
2023-04-22T08:43:58.953Z,19.42
2023-04-22T08:46:32.107Z,19.43
2023-04-22T08:49:04.203Z,19.43
2023-04-22T08:51:35.093Z,19.43
2023-04-22T08:54:06.365Z,19.44
2023-04-22T08:56:38.229Z,19.43
2023-04-22T08:59:10.709Z,19.44
2023-04-22T09:01:42.563Z,19.45
2023-04-22T09:04:15.836Z,19.45
2023-04-22T09:06:46.560Z,19.46
2023-04-22T09:09:17.433Z,19.46
2023-04-22T09:11:48.267Z,19.46
2023-04-22T09:14:20.322Z,19.47
2023-04-22T09:16:51.386Z,19.48
2023-04-22T09:19:26.644Z,19.48
2023-04-22T09:22:00.545Z,19.48
2023-04-22T09:24:30.747Z,19.48
2023-04-22T09:27:04.662Z,19.47
2023-04-22T09:29:35.873Z,19.48
2023-04-22T09:32:13.201Z,19.49
2023-04-22T09:34:51.888Z,19.50
2023-04-22T09:37:29.022Z,19.52
2023-04-22T09:40:07.793Z,19.53
2023-04-22T09:42:51.168Z,19.55
2023-04-22T09:45:33.240Z,19.58
2023-04-22T09:48:08.723Z,19.61
2023-04-22T09:50:40.647Z,19.65
2023-04-22T09:53:12.863Z,19.67
2023-04-22T09:55:46.018Z,19.70
2023-04-22T09:58:18.633Z,19.70
2023-04-22T10:00:51.589Z,19.74
2023-04-22T10:03:22.733Z,19.75
2023-04-22T10:05:53.694Z,19.76
2023-04-22T10:08:25.080Z,19.77
2023-04-22T10:10:56.994Z,19.77
2023-04-22T10:13:28.771Z,19.78
2023-04-22T10:16:01.838Z,19.79
2023-04-22T10:18:33.383Z,19.80
2023-04-22T10:21:04.615Z,19.83
2023-04-22T10:23:36.438Z,19.85
2023-04-22T10:26:08.008Z,19.87
2023-04-22T10:28:45.600Z,19.88
2023-04-22T10:31:24.683Z,19.89
2023-04-22T10:34:13.352Z,19.91
2023-04-22T10:37:08.356Z,19.93
2023-04-22T10:39:40.368Z,19.95
2023-04-22T10:42:15.446Z,19.96
2023-04-22T10:44:51.812Z,19.97
2023-04-22T10:47:30.662Z,19.99
2023-04-22T10:50:22.495Z,20.01
2023-04-22T10:52:57.188Z,20.03
2023-04-22T10:55:48.985Z,20.05
2023-04-22T10:58:25.740Z,20.06
2023-04-22T11:01:00.293Z,20.09
2023-04-22T11:03:32.411Z,20.10
2023-04-22T11:06:22.516Z,20.13
2023-04-22T11:09:09.185Z,20.16
2023-04-22T11:11:40.748Z,20.19
2023-04-22T11:14:12.336Z,20.21
2023-04-22T11:16:49.334Z,20.23
2023-04-22T11:19:20.502Z,20.25
2023-04-22T11:21:51.907Z,20.26
2023-04-22T11:24:22.945Z,20.28
2023-04-22T11:26:56.965Z,20.29
2023-04-22T11:29:28.051Z,20.31
2023-04-22T11:32:00.201Z,20.32
2023-04-22T11:34:32.315Z,20.33
2023-04-22T11:37:03.413Z,20.35
2023-04-22T11:39:50.244Z,20.38
2023-04-22T11:42:30.310Z,20.41
2023-04-22T11:45:01.178Z,20.42
2023-04-22T11:47:34.699Z,20.45
2023-04-22T11:50:10.099Z,20.44
2023-04-22T11:52:52.334Z,20.49
2023-04-22T11:55:27.388Z,20.51
2023-04-22T11:58:03.692Z,20.53
2023-04-22T12:00:37.318Z,20.54
2023-04-22T12:03:15.348Z,20.55
2023-04-22T12:05:47.977Z,20.55
2023-04-22T12:08:20.955Z,20.57
2023-04-22T12:10:57.753Z,20.57
2023-04-22T12:13:30.489Z,20.57
2023-04-22T12:16:02.689Z,20.57
2023-04-22T12:18:34.761Z,20.58
2023-04-22T12:21:11.284Z,20.58
2023-04-22T12:23:46.894Z,20.59
2023-04-22T12:26:18.967Z,20.60
2023-04-22T12:28:50.108Z,20.62
2023-04-22T12:31:21.421Z,20.62
2023-04-22T12:33:52.464Z,20.62
2023-04-22T12:36:23.867Z,20.64
2023-04-22T12:38:54.900Z,20.64
2023-04-22T12:41:25.861Z,20.65
2023-04-22T12:43:56.998Z,20.66
2023-04-22T12:46:27.956Z,20.66
2023-04-22T12:48:59.189Z,20.67
2023-04-22T12:51:31.070Z,20.67
2023-04-22T12:54:01.871Z,20.69
2023-04-22T12:56:32.834Z,20.69
2023-04-22T12:59:03.778Z,20.69
2023-04-22T13:01:35.982Z,20.70
2023-04-22T13:04:07.433Z,20.70
2023-04-22T13:06:38.746Z,20.70
2023-04-22T13:09:09.702Z,20.71
2023-04-22T13:11:40.730Z,20.73
2023-04-22T13:14:11.985Z,20.73
2023-04-22T13:16:42.906Z,20.73
2023-04-22T13:19:15.462Z,20.73
2023-04-22T13:21:46.452Z,20.73
2023-04-22T13:24:17.382Z,20.73
2023-04-22T13:26:48.228Z,20.73
2023-04-22T13:29:19.283Z,20.72
2023-04-22T13:31:50.224Z,20.74
2023-04-22T13:34:21.067Z,20.76
2023-04-22T13:36:52.211Z,20.77
2023-04-22T13:39:23.666Z,20.79
2023-04-22T13:41:54.687Z,20.79
2023-04-22T13:44:26.127Z,20.81
2023-04-22T13:46:57.532Z,20.83
2023-04-22T13:49:28.457Z,20.85
2023-04-22T13:52:00.427Z,20.87
2023-04-22T13:54:31.686Z,20.89
2023-04-22T13:57:03.261Z,20.90
2023-04-22T13:59:38.112Z,20.91
2023-04-22T14:02:09.438Z,20.92
2023-04-22T14:04:41.179Z,20.92
2023-04-22T14:07:15.658Z,20.96
2023-04-22T14:09:46.751Z,20.99
2023-04-22T14:12:18.194Z,21.00
2023-04-22T14:14:49.416Z,21.03
2023-04-22T14:17:22.150Z,21.04
2023-04-22T14:19:54.305Z,21.05
2023-04-22T14:22:25.446Z,21.08
2023-04-22T14:24:56.856Z,21.08
2023-04-22T14:27:28.722Z,21.10
2023-04-22T14:29:59.711Z,21.11
2023-04-22T14:32:30.428Z,21.12
2023-04-22T14:35:01.811Z,21.12
2023-04-22T14:37:33.096Z,21.12
2023-04-22T14:40:05.029Z,21.12
2023-04-22T14:42:36.581Z,21.13
2023-04-22T14:45:09.046Z,21.14
2023-04-22T14:47:40.062Z,21.15
2023-04-22T14:50:12.044Z,21.17
2023-04-22T14:52:43.037Z,21.18
2023-04-22T14:55:22.731Z,21.19
2023-04-22T14:57:57.764Z,21.20
2023-04-22T15:00:27.503Z,21.20
2023-04-22T15:03:01.664Z,21.18
2023-04-22T15:05:32.886Z,21.19
2023-04-22T15:08:03.742Z,21.21
2023-04-22T15:10:34.676Z,21.22
2023-04-22T15:13:05.930Z,21.22
2023-04-22T15:15:36.951Z,21.24
2023-04-22T15:18:08.052Z,21.25
2023-04-22T15:20:39.279Z,21.25
2023-04-22T15:23:10.290Z,21.26
2023-04-22T15:25:41.225Z,21.28
2023-04-22T15:28:12.377Z,21.31
2023-04-22T15:30:43.941Z,21.32
2023-04-22T15:33:14.816Z,21.32
2023-04-22T15:35:47.742Z,21.33
2023-04-22T15:38:19.122Z,21.34
2023-04-22T15:40:50.125Z,21.35
2023-04-22T15:43:21.184Z,21.35
2023-04-22T15:45:52.282Z,21.36
2023-04-22T15:48:23.571Z,21.37
2023-04-22T15:50:54.915Z,21.36
2023-04-22T15:53:26.013Z,21.36
2023-04-22T15:55:58.170Z,21.37
2023-04-22T15:58:30.579Z,21.38
2023-04-22T16:01:15.357Z,21.39
2023-04-22T16:03:47.965Z,21.39
2023-04-22T16:06:19.951Z,21.37
2023-04-22T16:08:50.794Z,21.38
2023-04-22T16:11:21.941Z,21.39
2023-04-22T16:13:52.903Z,21.39
2023-04-22T16:16:25.258Z,21.40
2023-04-22T16:18:56.414Z,21.39
2023-04-22T16:21:28.902Z,21.40
2023-04-22T16:24:00.963Z,21.40
2023-04-22T16:26:31.894Z,21.40
2023-04-22T16:29:03.213Z,21.42
2023-04-22T16:31:35.081Z,21.41
2023-04-22T16:34:06.227Z,21.39
2023-04-22T16:36:37.163Z,21.40
2023-04-22T16:39:08.260Z,21.40
2023-04-22T16:41:39.271Z,21.41
2023-04-22T16:44:10.439Z,21.41
2023-04-22T16:46:41.553Z,21.41
2023-04-22T16:49:13.608Z,21.40
2023-04-22T16:51:44.498Z,21.41
2023-04-22T16:54:15.468Z,21.41
2023-04-22T16:56:47.173Z,21.40
2023-04-22T16:59:18.042Z,21.40
2023-04-22T17:01:48.895Z,21.41
2023-04-22T17:04:20.040Z,21.45
2023-04-22T17:06:51.084Z,21.48
2023-04-22T17:09:21.844Z,21.50
2023-04-22T17:11:52.974Z,21.52
2023-04-22T17:14:23.877Z,21.53
2023-04-22T17:16:55.117Z,21.57
2023-04-22T17:19:26.310Z,21.58
2023-04-22T17:21:57.620Z,21.60
2023-04-22T17:24:28.978Z,21.60
2023-04-22T17:26:59.931Z,21.59
2023-04-22T17:29:31.176Z,21.60
2023-04-22T17:32:02.390Z,21.60
2023-04-22T17:34:33.563Z,21.59
2023-04-22T17:37:04.522Z,21.59
2023-04-22T17:39:36.027Z,21.58
2023-04-22T17:42:07.352Z,21.57
2023-04-22T17:44:38.789Z,21.55
2023-04-22T17:47:10.117Z,21.54
2023-04-22T17:49:42.112Z,21.53
2023-04-22T17:52:13.420Z,21.52
2023-04-22T17:54:44.841Z,21.51
2023-04-22T17:57:16.355Z,21.51
2023-04-22T17:59:47.328Z,21.49
2023-04-22T18:02:22.161Z,21.47
2023-04-22T18:04:53.217Z,21.45
2023-04-22T18:07:24.246Z,21.44
2023-04-22T18:09:55.452Z,21.43
2023-04-22T18:12:30.679Z,21.42
2023-04-22T18:15:02.659Z,21.40
2023-04-22T18:17:33.978Z,21.37
2023-04-22T18:20:17.467Z,21.36
2023-04-22T18:22:52.170Z,21.34
2023-04-22T18:25:24.389Z,21.32
2023-04-22T18:27:57.092Z,21.30
2023-04-22T18:30:30.338Z,21.26
2023-04-22T18:33:02.043Z,21.24
2023-04-22T18:35:34.087Z,21.24
2023-04-22T18:38:05.399Z,21.24
2023-04-22T18:40:37.916Z,21.25
2023-04-22T18:43:09.082Z,21.27
2023-04-22T18:45:41.920Z,21.29
2023-04-22T18:48:13.451Z,21.30
2023-04-22T18:50:44.995Z,21.30
2023-04-22T18:53:16.349Z,21.31
2023-04-22T18:55:47.641Z,21.32
2023-04-22T18:58:20.787Z,21.33
2023-04-22T19:00:53.026Z,21.34
2023-04-22T19:03:25.658Z,21.32
2023-04-22T19:05:56.937Z,21.35
2023-04-22T19:08:28.093Z,21.34
2023-04-22T19:10:59.383Z,21.36
2023-04-22T19:13:30.752Z,21.37
2023-04-22T19:16:02.378Z,21.38
2023-04-22T19:18:33.446Z,21.38
2023-04-22T19:21:05.249Z,21.39
2023-04-22T19:23:36.590Z,21.41
2023-04-22T19:26:10.192Z,21.40
2023-04-22T19:28:47.182Z,21.42
2023-04-22T19:31:18.970Z,21.41
2023-04-22T19:33:50.904Z,21.41
2023-04-22T19:36:22.469Z,21.42
2023-04-22T19:38:53.726Z,21.44
2023-04-22T19:41:25.340Z,21.45
2023-04-22T19:43:59.085Z,21.46
2023-04-22T19:46:28.258Z,21.46
2023-04-22T19:49:00.304Z,21.46
2023-04-22T19:51:32.114Z,21.48
2023-04-22T19:54:05.214Z,21.49
2023-04-22T19:56:37.678Z,21.49
2023-04-22T19:59:09.248Z,21.49
2023-04-22T20:01:42.630Z,21.49
2023-04-22T20:04:15.240Z,21.51
2023-04-22T20:06:47.504Z,21.51
2023-04-22T20:09:19.623Z,21.52
2023-04-22T20:11:51.240Z,21.52
2023-04-22T20:14:23.315Z,21.53
2023-04-22T20:16:55.802Z,21.54
2023-04-22T20:19:28.428Z,21.56
2023-04-22T20:22:01.317Z,21.56
2023-04-22T20:24:38.979Z,21.55
2023-04-22T20:27:10.879Z,21.56
2023-04-22T20:29:43.579Z,21.57
2023-04-22T20:32:15.205Z,21.57
2023-04-22T20:34:47.081Z,21.57
2023-04-22T20:37:21.108Z,21.57
2023-04-22T20:39:53.309Z,21.58
2023-04-22T20:42:25.618Z,21.59
2023-04-22T20:44:56.545Z,21.59
2023-04-22T20:47:27.657Z,21.59
2023-04-22T20:49:58.648Z,21.60
2023-04-22T20:52:29.816Z,21.60
2023-04-22T20:55:01.064Z,21.60
2023-04-22T20:57:32.086Z,21.61
2023-04-22T21:00:02.923Z,21.61
2023-04-22T21:02:34.419Z,21.61
2023-04-22T21:05:06.840Z,21.61
2023-04-22T21:07:41.461Z,21.60
2023-04-22T21:10:14.270Z,21.60
2023-04-22T21:12:46.269Z,21.61
2023-04-22T21:15:18.570Z,21.59
2023-04-22T21:17:56.612Z,21.60
2023-04-22T21:20:30.875Z,21.61
2023-04-22T21:23:03.003Z,21.60
2023-04-22T21:25:35.829Z,21.60
2023-04-22T21:28:07.839Z,21.60
2023-04-22T21:30:40.148Z,21.59
2023-04-22T21:33:11.156Z,21.60
2023-04-22T21:35:42.536Z,21.58
2023-04-22T21:38:13.559Z,21.57
2023-04-22T21:40:44.841Z,21.56
2023-04-22T21:43:15.864Z,21.56
2023-04-22T21:45:46.696Z,21.53
2023-04-22T21:48:17.753Z,21.53
2023-04-22T21:50:48.687Z,21.51
2023-04-22T21:53:20.796Z,21.50
2023-04-22T21:55:51.902Z,21.50
2023-04-22T21:58:22.902Z,21.48
2023-04-22T22:00:54.094Z,21.47
2023-04-22T22:03:25.458Z,21.44
2023-04-22T22:05:56.608Z,21.43
2023-04-22T22:08:27.754Z,21.41
2023-04-22T22:10:59.578Z,21.40
2023-04-22T22:13:30.651Z,21.39
2023-04-22T22:16:02.157Z,21.37
2023-04-22T22:18:33.202Z,21.36
2023-04-22T22:21:04.223Z,21.36
2023-04-22T22:23:35.207Z,21.35
2023-04-22T22:26:08.236Z,21.34
2023-04-22T22:28:39.185Z,21.33
2023-04-22T22:31:09.966Z,21.31
2023-04-22T22:33:40.864Z,21.31
2023-04-22T22:36:12.390Z,21.30
2023-04-22T22:38:43.277Z,21.28
2023-04-22T22:41:14.277Z,21.28
2023-04-22T22:43:45.055Z,21.27
2023-04-22T22:46:16.223Z,21.26
2023-04-22T22:48:47.047Z,21.25
2023-04-22T22:51:18.731Z,21.24
2023-04-22T22:53:49.449Z,21.23
2023-04-22T22:56:21.051Z,21.23
2023-04-22T22:58:52.532Z,21.23
2023-04-22T23:01:23.724Z,21.22
2023-04-22T23:03:54.864Z,21.22
2023-04-22T23:06:27.232Z,21.20
2023-04-22T23:08:58.261Z,21.20
2023-04-22T23:11:29.065Z,21.20
2023-04-22T23:13:59.748Z,21.19
2023-04-22T23:16:30.472Z,21.19
2023-04-22T23:19:01.564Z,21.18
2023-04-22T23:21:33.261Z,21.17
2023-04-22T23:24:05.659Z,21.16
2023-04-22T23:26:37.424Z,21.16
2023-04-22T23:29:09.082Z,21.14
2023-04-22T23:31:42.806Z,21.12
2023-04-22T23:34:11.960Z,21.12
2023-04-22T23:36:43.813Z,21.09
2023-04-22T23:39:14.797Z,21.10
2023-04-22T23:41:45.403Z,21.10
2023-04-22T23:44:16.532Z,21.09
2023-04-22T23:46:48.066Z,21.09
2023-04-22T23:49:18.969Z,21.07
2023-04-22T23:51:50.113Z,21.06
2023-04-22T23:54:21.293Z,21.06
2023-04-22T23:56:53.453Z,21.07
2023-04-22T23:59:25.053Z,21.07
